sensor_id;sensor_type;location;lat;lon;timestamp;temperature;humidity
65378;SHT31;51982;51.042;13.806;2023-09-19T00:00:00;20.94;82.49
65378;SHT31;51982;51.042;13.806;2023-09-19T00:02:26;20.94;82.41
65378;SHT31;51982;51.042;13.806;2023-09-19T00:04:51;20.93;82.41
65378;SHT31;51982;51.042;13.806;2023-09-19T00:07:17;20.93;82.37
65378;SHT31;51982;51.042;13.806;2023-09-19T00:09:42;20.93;82.34
65378;SHT31;51982;51.042;13.806;2023-09-19T00:12:09;20.90;82.42
65378;SHT31;51982;51.042;13.806;2023-09-19T00:14:35;20.87;82.31
65378;SHT31;51982;51.042;13.806;2023-09-19T00:17:01;20.90;82.31
65378;SHT31;51982;51.042;13.806;2023-09-19T00:19:31;20.92;82.33
65378;SHT31;51982;51.042;13.806;2023-09-19T00:21:57;20.83;82.36
65378;SHT31;51982;51.042;13.806;2023-09-19T00:24:23;20.76;82.55
65378;SHT31;51982;51.042;13.806;2023-09-19T00:26:48;20.80;82.50
65378;SHT31;51982;51.042;13.806;2023-09-19T00:29:13;20.77;82.48
65378;SHT31;51982;51.042;13.806;2023-09-19T00:31:43;20.79;82.47
65378;SHT31;51982;51.042;13.806;2023-09-19T00:34:08;20.75;82.41
65378;SHT31;51982;51.042;13.806;2023-09-19T00:36:36;20.76;82.43
65378;SHT31;51982;51.042;13.806;2023-09-19T00:39:03;20.73;82.43
65378;SHT31;51982;51.042;13.806;2023-09-19T00:41:30;20.73;82.42
65378;SHT31;51982;51.042;13.806;2023-09-19T00:43:55;20.70;82.48
65378;SHT31;51982;51.042;13.806;2023-09-19T00:46:21;20.70;82.54
65378;SHT31;51982;51.042;13.806;2023-09-19T00:48:46;20.69;82.50
65378;SHT31;51982;51.042;13.806;2023-09-19T00:51:12;20.65;82.48
65378;SHT31;51982;51.042;13.806;2023-09-19T00:53:39;20.68;82.54
65378;SHT31;51982;51.042;13.806;2023-09-19T00:56:07;20.65;82.58
65378;SHT31;51982;51.042;13.806;2023-09-19T00:58:33;20.69;82.55
65378;SHT31;51982;51.042;13.806;2023-09-19T01:01:00;20.66;82.52
65378;SHT31;51982;51.042;13.806;2023-09-19T01:03:27;20.66;82.47
65378;SHT31;51982;51.042;13.806;2023-09-19T01:05:52;20.62;82.46
65378;SHT31;51982;51.042;13.806;2023-09-19T01:08:18;20.62;82.37
65378;SHT31;51982;51.042;13.806;2023-09-19T01:10:52;20.57;82.37
65378;SHT31;51982;51.042;13.806;2023-09-19T01:13:31;20.57;82.33
65378;SHT31;51982;51.042;13.806;2023-09-19T01:16:19;20.53;82.39
65378;SHT31;51982;51.042;13.806;2023-09-19T01:22:08;20.52;82.43
65378;SHT31;51982;51.042;13.806;2023-09-19T01:25:07;20.48;82.39
65378;SHT31;51982;51.042;13.806;2023-09-19T01:28:14;20.49;82.41
65378;SHT31;51982;51.042;13.806;2023-09-19T01:30:46;20.48;82.58
65378;SHT31;51982;51.042;13.806;2023-09-19T01:33:12;20.49;82.58
65378;SHT31;51982;51.042;13.806;2023-09-19T01:35:38;20.50;82.59
65378;SHT31;51982;51.042;13.806;2023-09-19T01:38:04;20.52;82.53
65378;SHT31;51982;51.042;13.806;2023-09-19T01:40:30;20.50;82.54
65378;SHT31;51982;51.042;13.806;2023-09-19T01:43:05;20.45;82.47
65378;SHT31;51982;51.042;13.806;2023-09-19T01:45:46;20.39;82.54
65378;SHT31;51982;51.042;13.806;2023-09-19T01:48:35;20.42;82.65
65378;SHT31;51982;51.042;13.806;2023-09-19T01:51:06;20.39;82.59
65378;SHT31;51982;51.042;13.806;2023-09-19T01:53:43;20.42;82.50
65378;SHT31;51982;51.042;13.806;2023-09-19T01:56:16;20.39;82.52
65378;SHT31;51982;51.042;13.806;2023-09-19T01:58:48;20.36;82.52
65378;SHT31;51982;51.042;13.806;2023-09-19T02:01:19;20.35;82.60
65378;SHT31;51982;51.042;13.806;2023-09-19T02:03:46;20.35;82.55
65378;SHT31;51982;51.042;13.806;2023-09-19T02:06:16;20.36;82.56
65378;SHT31;51982;51.042;13.806;2023-09-19T02:08:43;20.38;82.53
65378;SHT31;51982;51.042;13.806;2023-09-19T02:11:10;20.32;82.59
65378;SHT31;51982;51.042;13.806;2023-09-19T02:13:36;20.32;82.64
65378;SHT31;51982;51.042;13.806;2023-09-19T02:16:01;20.33;82.69
65378;SHT31;51982;51.042;13.806;2023-09-19T02:18:29;20.29;82.70
65378;SHT31;51982;51.042;13.806;2023-09-19T02:20:55;20.26;82.75
65378;SHT31;51982;51.042;13.806;2023-09-19T02:23:21;20.28;82.79
65378;SHT31;51982;51.042;13.806;2023-09-19T02:26:13;20.28;82.64
65378;SHT31;51982;51.042;13.806;2023-09-19T02:28:39;20.29;82.76
65378;SHT31;51982;51.042;13.806;2023-09-19T02:31:04;20.25;82.79
65378;SHT31;51982;51.042;13.806;2023-09-19T02:33:32;20.25;82.76
65378;SHT31;51982;51.042;13.806;2023-09-19T02:35:58;20.25;82.73
65378;SHT31;51982;51.042;13.806;2023-09-19T02:38:24;20.24;82.77
65378;SHT31;51982;51.042;13.806;2023-09-19T02:40:51;20.24;82.77
65378;SHT31;51982;51.042;13.806;2023-09-19T02:43:16;20.24;82.78
65378;SHT31;51982;51.042;13.806;2023-09-19T02:45:42;20.21;82.75
65378;SHT31;51982;51.042;13.806;2023-09-19T02:48:07;20.18;82.76
65378;SHT31;51982;51.042;13.806;2023-09-19T02:50:33;20.18;82.68
65378;SHT31;51982;51.042;13.806;2023-09-19T02:52:59;20.21;82.74
65378;SHT31;51982;51.042;13.806;2023-09-19T02:55:24;20.15;82.80
65378;SHT31;51982;51.042;13.806;2023-09-19T02:57:53;20.08;82.84
65378;SHT31;51982;51.042;13.806;2023-09-19T03:00:22;20.09;82.78
65378;SHT31;51982;51.042;13.806;2023-09-19T03:02:54;20.11;82.68
65378;SHT31;51982;51.042;13.806;2023-09-19T03:05:20;20.09;82.83
65378;SHT31;51982;51.042;13.806;2023-09-19T03:07:47;20.11;82.89
65378;SHT31;51982;51.042;13.806;2023-09-19T03:10:16;20.08;82.83
65378;SHT31;51982;51.042;13.806;2023-09-19T03:12:41;20.09;82.79
65378;SHT31;51982;51.042;13.806;2023-09-19T03:15:07;20.05;82.79
65378;SHT31;51982;51.042;13.806;2023-09-19T03:17:34;19.99;82.78
65378;SHT31;51982;51.042;13.806;2023-09-19T03:20:00;19.99;82.77
65378;SHT31;51982;51.042;13.806;2023-09-19T03:22:26;20.04;82.79
65378;SHT31;51982;51.042;13.806;2023-09-19T03:24:52;19.99;82.82
65378;SHT31;51982;51.042;13.806;2023-09-19T03:27:18;20.02;82.85
65378;SHT31;51982;51.042;13.806;2023-09-19T03:29:43;20.02;82.82
65378;SHT31;51982;51.042;13.806;2023-09-19T03:32:08;19.98;82.78
65378;SHT31;51982;51.042;13.806;2023-09-19T03:34:37;19.97;82.84
65378;SHT31;51982;51.042;13.806;2023-09-19T03:37:05;19.91;82.85
65378;SHT31;51982;51.042;13.806;2023-09-19T03:39:32;19.94;82.85
65378;SHT31;51982;51.042;13.806;2023-09-19T03:41:57;19.94;82.94
65378;SHT31;51982;51.042;13.806;2023-09-19T03:44:25;19.92;82.92
65378;SHT31;51982;51.042;13.806;2023-09-19T03:46:50;19.89;82.95
65378;SHT31;51982;51.042;13.806;2023-09-19T03:49:15;19.87;82.76
65378;SHT31;51982;51.042;13.806;2023-09-19T03:51:40;19.88;82.93
65378;SHT31;51982;51.042;13.806;2023-09-19T03:54:07;19.87;82.88
65378;SHT31;51982;51.042;13.806;2023-09-19T03:56:32;19.88;83.01
65378;SHT31;51982;51.042;13.806;2023-09-19T03:58:58;19.85;82.78
65378;SHT31;51982;51.042;13.806;2023-09-19T04:01:23;19.85;82.88
65378;SHT31;51982;51.042;13.806;2023-09-19T04:03:48;19.85;82.90
65378;SHT31;51982;51.042;13.806;2023-09-19T04:06:16;19.88;82.89
65378;SHT31;51982;51.042;13.806;2023-09-19T04:08:41;19.89;82.90
65378;SHT31;51982;51.042;13.806;2023-09-19T04:11:08;19.88;82.91
65378;SHT31;51982;51.042;13.806;2023-09-19T04:13:33;19.85;82.85
65378;SHT31;51982;51.042;13.806;2023-09-19T04:15:59;19.84;82.77
65378;SHT31;51982;51.042;13.806;2023-09-19T04:18:24;19.88;82.75
65378;SHT31;51982;51.042;13.806;2023-09-19T04:20:50;19.89;82.67
65378;SHT31;51982;51.042;13.806;2023-09-19T04:23:16;19.88;82.61
65378;SHT31;51982;51.042;13.806;2023-09-19T04:25:42;19.85;82.65
65378;SHT31;51982;51.042;13.806;2023-09-19T04:28:07;19.87;82.51
65378;SHT31;51982;51.042;13.806;2023-09-19T04:30:32;19.88;82.33
65378;SHT31;51982;51.042;13.806;2023-09-19T04:32:57;19.88;82.36
65378;SHT31;51982;51.042;13.806;2023-09-19T04:35:23;19.89;82.26
65378;SHT31;51982;51.042;13.806;2023-09-19T04:37:48;19.85;82.28
65378;SHT31;51982;51.042;13.806;2023-09-19T04:40:15;19.85;82.30
65378;SHT31;51982;51.042;13.806;2023-09-19T04:42:43;19.88;82.26
65378;SHT31;51982;51.042;13.806;2023-09-19T04:45:09;19.85;82.32
65378;SHT31;51982;51.042;13.806;2023-09-19T04:47:36;19.85;82.16
65378;SHT31;51982;51.042;13.806;2023-09-19T04:50:03;19.85;82.38
65378;SHT31;51982;51.042;13.806;2023-09-19T04:52:30;19.85;82.34
65378;SHT31;51982;51.042;13.806;2023-09-19T04:54:56;19.84;82.30
65378;SHT31;51982;51.042;13.806;2023-09-19T04:57:22;19.81;82.46
65378;SHT31;51982;51.042;13.806;2023-09-19T04:59:48;19.84;82.53
65378;SHT31;51982;51.042;13.806;2023-09-19T05:02:13;19.79;82.42
65378;SHT31;51982;51.042;13.806;2023-09-19T05:04:38;19.81;82.20
65378;SHT31;51982;51.042;13.806;2023-09-19T05:07:04;19.78;82.42
65378;SHT31;51982;51.042;13.806;2023-09-19T05:09:29;19.79;82.34
65378;SHT31;51982;51.042;13.806;2023-09-19T05:11:54;19.77;82.21
65378;SHT31;51982;51.042;13.806;2023-09-19T05:14:21;19.73;82.27
65378;SHT31;51982;51.042;13.806;2023-09-19T05:16:47;19.74;82.38
65378;SHT31;51982;51.042;13.806;2023-09-19T05:19:12;19.75;82.46
65378;SHT31;51982;51.042;13.806;2023-09-19T05:21:38;19.77;82.57
65378;SHT31;51982;51.042;13.806;2023-09-19T05:24:05;19.78;82.66
65378;SHT31;51982;51.042;13.806;2023-09-19T05:26:32;19.78;82.71
65378;SHT31;51982;51.042;13.806;2023-09-19T05:28:57;19.79;82.25
65378;SHT31;51982;51.042;13.806;2023-09-19T05:31:22;19.79;82.60
65378;SHT31;51982;51.042;13.806;2023-09-19T05:33:49;19.81;82.66
65378;SHT31;51982;51.042;13.806;2023-09-19T05:36:15;19.81;82.65
65378;SHT31;51982;51.042;13.806;2023-09-19T05:38:41;19.81;82.68
65378;SHT31;51982;51.042;13.806;2023-09-19T05:41:07;19.81;82.67
65378;SHT31;51982;51.042;13.806;2023-09-19T05:43:34;19.84;82.61
65378;SHT31;51982;51.042;13.806;2023-09-19T05:46:02;19.84;82.66
65378;SHT31;51982;51.042;13.806;2023-09-19T05:48:28;19.87;82.61
65378;SHT31;51982;51.042;13.806;2023-09-19T05:50:53;19.89;82.53
65378;SHT31;51982;51.042;13.806;2023-09-19T05:53:18;19.87;82.52
65378;SHT31;51982;51.042;13.806;2023-09-19T05:55:43;19.89;82.57
65378;SHT31;51982;51.042;13.806;2023-09-19T05:58:09;19.88;82.41
65378;SHT31;51982;51.042;13.806;2023-09-19T06:00:35;19.92;82.40
65378;SHT31;51982;51.042;13.806;2023-09-19T06:03:01;19.95;82.47
65378;SHT31;51982;51.042;13.806;2023-09-19T06:05:27;19.92;82.09
65378;SHT31;51982;51.042;13.806;2023-09-19T06:07:54;19.95;81.99
65378;SHT31;51982;51.042;13.806;2023-09-19T06:10:19;19.95;81.96
65378;SHT31;51982;51.042;13.806;2023-09-19T06:12:48;19.99;81.91
65378;SHT31;51982;51.042;13.806;2023-09-19T06:15:14;20.02;81.62
65378;SHT31;51982;51.042;13.806;2023-09-19T06:17:42;20.09;81.48
65378;SHT31;51982;51.042;13.806;2023-09-19T06:20:08;20.08;81.63
65378;SHT31;51982;51.042;13.806;2023-09-19T06:22:40;20.12;81.73
65378;SHT31;51982;51.042;13.806;2023-09-19T06:25:07;20.15;81.64
65378;SHT31;51982;51.042;13.806;2023-09-19T06:27:32;20.17;81.76
65378;SHT31;51982;51.042;13.806;2023-09-19T06:29:57;20.15;81.51
65378;SHT31;51982;51.042;13.806;2023-09-19T06:32:28;20.18;81.54
65378;SHT31;51982;51.042;13.806;2023-09-19T06:34:54;20.19;81.41
65378;SHT31;51982;51.042;13.806;2023-09-19T06:37:20;20.24;81.36
65378;SHT31;51982;51.042;13.806;2023-09-19T06:39:46;20.21;81.42
65378;SHT31;51982;51.042;13.806;2023-09-19T06:42:13;20.25;81.24
65378;SHT31;51982;51.042;13.806;2023-09-19T06:44:38;20.25;81.24
65378;SHT31;51982;51.042;13.806;2023-09-19T06:47:04;20.25;81.05
65378;SHT31;51982;51.042;13.806;2023-09-19T06:49:30;20.29;80.99
65378;SHT31;51982;51.042;13.806;2023-09-19T06:51:55;20.29;80.98
65378;SHT31;51982;51.042;13.806;2023-09-19T06:54:22;20.29;80.82
65378;SHT31;51982;51.042;13.806;2023-09-19T06:56:47;20.29;80.83
65378;SHT31;51982;51.042;13.806;2023-09-19T06:59:13;20.35;80.90
65378;SHT31;51982;51.042;13.806;2023-09-19T07:01:39;20.36;80.99
65378;SHT31;51982;51.042;13.806;2023-09-19T07:04:05;20.40;80.98
65378;SHT31;51982;51.042;13.806;2023-09-19T07:06:30;20.40;80.66
65378;SHT31;51982;51.042;13.806;2023-09-19T07:08:55;20.42;80.57
65378;SHT31;51982;51.042;13.806;2023-09-19T07:11:20;20.48;80.75
65378;SHT31;51982;51.042;13.806;2023-09-19T07:13:47;20.49;80.57
65378;SHT31;51982;51.042;13.806;2023-09-19T07:16:12;20.55;80.49
65378;SHT31;51982;51.042;13.806;2023-09-19T07:18:52;20.57;80.58
65378;SHT31;51982;51.042;13.806;2023-09-19T07:21:17;20.63;80.23
65378;SHT31;51982;51.042;13.806;2023-09-19T07:23:42;20.75;80.38
65378;SHT31;51982;51.042;13.806;2023-09-19T07:26:07;20.73;79.78
65378;SHT31;51982;51.042;13.806;2023-09-19T07:28:33;20.77;79.98
65378;SHT31;51982;51.042;13.806;2023-09-19T07:31:02;20.76;79.65
65378;SHT31;51982;51.042;13.806;2023-09-19T07:33:28;20.82;78.84
65378;SHT31;51982;51.042;13.806;2023-09-19T07:35:53;20.84;78.76
65378;SHT31;51982;51.042;13.806;2023-09-19T07:38:18;20.80;77.96
65378;SHT31;51982;51.042;13.806;2023-09-19T07:40:44;20.82;77.90
65378;SHT31;51982;51.042;13.806;2023-09-19T07:43:09;20.84;77.88
65378;SHT31;51982;51.042;13.806;2023-09-19T07:45:34;20.86;77.61
65378;SHT31;51982;51.042;13.806;2023-09-19T07:48:01;20.90;78.06
65378;SHT31;51982;51.042;13.806;2023-09-19T07:50:33;20.84;76.15
65378;SHT31;51982;51.042;13.806;2023-09-19T07:52:59;20.93;76.13
65378;SHT31;51982;51.042;13.806;2023-09-19T07:55:24;20.96;76.85
65378;SHT31;51982;51.042;13.806;2023-09-19T07:57:50;20.99;76.21
65378;SHT31;51982;51.042;13.806;2023-09-19T08:00:16;21.00;76.07
65378;SHT31;51982;51.042;13.806;2023-09-19T08:02:42;20.99;75.96
65378;SHT31;51982;51.042;13.806;2023-09-19T08:05:09;21.00;76.00
65378;SHT31;51982;51.042;13.806;2023-09-19T08:07:38;21.00;76.16
65378;SHT31;51982;51.042;13.806;2023-09-19T08:10:05;20.97;75.56
65378;SHT31;51982;51.042;13.806;2023-09-19T08:12:33;21.00;75.89
65378;SHT31;51982;51.042;13.806;2023-09-19T08:14:58;21.00;75.78
65378;SHT31;51982;51.042;13.806;2023-09-19T08:17:24;21.00;75.34
65378;SHT31;51982;51.042;13.806;2023-09-19T08:19:49;21.00;75.15
65378;SHT31;51982;51.042;13.806;2023-09-19T08:22:18;20.97;74.48
65378;SHT31;51982;51.042;13.806;2023-09-19T08:24:43;20.94;74.36
65378;SHT31;51982;51.042;13.806;2023-09-19T08:27:08;20.94;74.65
65378;SHT31;51982;51.042;13.806;2023-09-19T08:29:35;20.96;74.67
65378;SHT31;51982;51.042;13.806;2023-09-19T08:32:00;21.00;74.83
65378;SHT31;51982;51.042;13.806;2023-09-19T08:34:26;21.03;75.36
65378;SHT31;51982;51.042;13.806;2023-09-19T08:36:54;21.06;74.98
65378;SHT31;51982;51.042;13.806;2023-09-19T08:39:22;21.11;74.13
65378;SHT31;51982;51.042;13.806;2023-09-19T08:41:47;21.10;73.94
65378;SHT31;51982;51.042;13.806;2023-09-19T08:44:12;21.14;73.80
65378;SHT31;51982;51.042;13.806;2023-09-19T08:46:43;21.15;73.42
65378;SHT31;51982;51.042;13.806;2023-09-19T08:49:17;21.28;74.06
65378;SHT31;51982;51.042;13.806;2023-09-19T08:51:54;21.37;74.00
65378;SHT31;51982;51.042;13.806;2023-09-19T08:54:25;21.37;73.81
65378;SHT31;51982;51.042;13.806;2023-09-19T08:56:54;21.38;74.08
65378;SHT31;51982;51.042;13.806;2023-09-19T08:59:25;21.38;74.13
65378;SHT31;51982;51.042;13.806;2023-09-19T09:01:52;21.35;73.66
65378;SHT31;51982;51.042;13.806;2023-09-19T09:04:19;21.37;73.90
65378;SHT31;51982;51.042;13.806;2023-09-19T09:06:46;21.38;73.81
65378;SHT31;51982;51.042;13.806;2023-09-19T09:09:15;21.45;73.78
65378;SHT31;51982;51.042;13.806;2023-09-19T09:11:40;21.47;73.63
65378;SHT31;51982;51.042;13.806;2023-09-19T09:14:06;21.50;73.17
65378;SHT31;51982;51.042;13.806;2023-09-19T09:16:34;21.51;73.36
65378;SHT31;51982;51.042;13.806;2023-09-19T09:19:00;21.54;72.99
65378;SHT31;51982;51.042;13.806;2023-09-19T09:21:26;21.52;72.54
65378;SHT31;51982;51.042;13.806;2023-09-19T09:23:51;21.61;72.63
65378;SHT31;51982;51.042;13.806;2023-09-19T09:26:40;21.66;72.60
65378;SHT31;51982;51.042;13.806;2023-09-19T09:29:05;21.74;72.15
65378;SHT31;51982;51.042;13.806;2023-09-19T09:31:31;21.72;71.43
65378;SHT31;51982;51.042;13.806;2023-09-19T09:33:57;21.77;71.74
65378;SHT31;51982;51.042;13.806;2023-09-19T09:36:39;21.79;71.52
65378;SHT31;51982;51.042;13.806;2023-09-19T09:39:07;21.84;71.85
65378;SHT31;51982;51.042;13.806;2023-09-19T09:41:43;21.84;71.36
65378;SHT31;51982;51.042;13.806;2023-09-19T09:44:13;21.88;71.95
65378;SHT31;51982;51.042;13.806;2023-09-19T09:46:42;21.91;72.13
65378;SHT31;51982;51.042;13.806;2023-09-19T09:49:24;21.88;71.81
65378;SHT31;51982;51.042;13.806;2023-09-19T09:55:01;21.79;71.08
65378;SHT31;51982;51.042;13.806;2023-09-19T09:57:30;21.85;71.27
65378;SHT31;51982;51.042;13.806;2023-09-19T09:59:57;21.85;71.20
65378;SHT31;51982;51.042;13.806;2023-09-19T10:02:27;21.91;71.28
65378;SHT31;51982;51.042;13.806;2023-09-19T10:05:11;21.92;71.64
65378;SHT31;51982;51.042;13.806;2023-09-19T10:07:48;21.94;71.53
65378;SHT31;51982;51.042;13.806;2023-09-19T10:10:35;21.89;71.18
65378;SHT31;51982;51.042;13.806;2023-09-19T10:13:08;21.88;70.93
65378;SHT31;51982;51.042;13.806;2023-09-19T10:15:37;21.91;71.23
65378;SHT31;51982;51.042;13.806;2023-09-19T10:18:04;21.98;71.34
65378;SHT31;51982;51.042;13.806;2023-09-19T10:20:30;22.03;70.96
65378;SHT31;51982;51.042;13.806;2023-09-19T10:22:56;22.06;71.31
65378;SHT31;51982;51.042;13.806;2023-09-19T10:25:27;22.10;71.25
65378;SHT31;51982;51.042;13.806;2023-09-19T10:27:57;22.17;70.87
65378;SHT31;51982;51.042;13.806;2023-09-19T10:30:24;22.22;71.08
65378;SHT31;51982;51.042;13.806;2023-09-19T10:33:03;22.20;70.57
65378;SHT31;51982;51.042;13.806;2023-09-19T10:35:29;22.28;70.99
65378;SHT31;51982;51.042;13.806;2023-09-19T10:37:59;22.26;70.52
65378;SHT31;51982;51.042;13.806;2023-09-19T10:40:27;22.28;70.98
65378;SHT31;51982;51.042;13.806;2023-09-19T10:43:00;22.29;70.69
65378;SHT31;51982;51.042;13.806;2023-09-19T10:45:28;22.26;70.36
65378;SHT31;51982;51.042;13.806;2023-09-19T10:47:57;22.30;70.10
65378;SHT31;51982;51.042;13.806;2023-09-19T10:50:23;22.32;69.45
65378;SHT31;51982;51.042;13.806;2023-09-19T10:52:49;22.29;69.67
65378;SHT31;51982;51.042;13.806;2023-09-19T10:55:17;22.33;70.05
65378;SHT31;51982;51.042;13.806;2023-09-19T10:57:44;22.40;70.32
65378;SHT31;51982;51.042;13.806;2023-09-19T11:00:12;22.40;69.43
65378;SHT31;51982;51.042;13.806;2023-09-19T11:05:34;22.45;68.52
65378;SHT31;51982;51.042;13.806;2023-09-19T11:08:00;22.45;68.20
65378;SHT31;51982;51.042;13.806;2023-09-19T11:10:45;22.43;69.10
65378;SHT31;51982;51.042;13.806;2023-09-19T11:13:40;22.46;66.94
65378;SHT31;51982;51.042;13.806;2023-09-19T11:16:06;22.55;67.86
65378;SHT31;51982;51.042;13.806;2023-09-19T11:26:45;22.74;66.37
65378;SHT31;51982;51.042;13.806;2023-09-19T11:31:51;22.87;66.07
65378;SHT31;51982;51.042;13.806;2023-09-19T11:37:00;22.91;64.28
65378;SHT31;51982;51.042;13.806;2023-09-19T11:39:29;22.98;64.50
65378;SHT31;51982;51.042;13.806;2023-09-19T11:41:54;22.98;64.43
65378;SHT31;51982;51.042;13.806;2023-09-19T11:46:56;23.07;65.33
65378;SHT31;51982;51.042;13.806;2023-09-19T11:49:26;23.10;65.86
65378;SHT31;51982;51.042;13.806;2023-09-19T11:51:55;23.15;65.23
65378;SHT31;51982;51.042;13.806;2023-09-19T11:54:21;23.17;64.42
65378;SHT31;51982;51.042;13.806;2023-09-19T11:56:57;23.22;64.69
65378;SHT31;51982;51.042;13.806;2023-09-19T11:59:24;23.22;64.39
65378;SHT31;51982;51.042;13.806;2023-09-19T12:01:52;23.25;64.37
65378;SHT31;51982;51.042;13.806;2023-09-19T12:06:58;23.25;64.28
65378;SHT31;51982;51.042;13.806;2023-09-19T12:09:24;23.27;64.31
65378;SHT31;51982;51.042;13.806;2023-09-19T12:11:50;23.27;64.08
65378;SHT31;51982;51.042;13.806;2023-09-19T12:14:23;23.24;63.75
65378;SHT31;51982;51.042;13.806;2023-09-19T12:16:55;23.22;63.81
65378;SHT31;51982;51.042;13.806;2023-09-19T12:19:21;23.28;63.98
65378;SHT31;51982;51.042;13.806;2023-09-19T12:21:55;23.32;64.99
65378;SHT31;51982;51.042;13.806;2023-09-19T12:24:23;23.35;64.81
65378;SHT31;51982;51.042;13.806;2023-09-19T12:26:51;23.34;65.16
65378;SHT31;51982;51.042;13.806;2023-09-19T12:29:18;23.17;64.83
65378;SHT31;51982;51.042;13.806;2023-09-19T12:31:54;23.15;65.75
65378;SHT31;51982;51.042;13.806;2023-09-19T12:34:24;23.24;65.82
65378;SHT31;51982;51.042;13.806;2023-09-19T12:37:13;23.22;65.67
65378;SHT31;51982;51.042;13.806;2023-09-19T12:39:46;23.18;65.51
65378;SHT31;51982;51.042;13.806;2023-09-19T12:42:15;23.25;65.84
65378;SHT31;51982;51.042;13.806;2023-09-19T12:44:42;23.17;65.67
65378;SHT31;51982;51.042;13.806;2023-09-19T12:47:27;23.24;66.84
65378;SHT31;51982;51.042;13.806;2023-09-19T12:52:49;23.24;69.08
65378;SHT31;51982;51.042;13.806;2023-09-19T12:55:25;23.07;71.52
65378;SHT31;51982;51.042;13.806;2023-09-19T12:58:13;23.10;70.99
65378;SHT31;51982;51.042;13.806;2023-09-19T13:00:44;23.12;69.20
65378;SHT31;51982;51.042;13.806;2023-09-19T13:03:38;23.12;68.75
65378;SHT31;51982;51.042;13.806;2023-09-19T13:06:04;23.12;68.75
65378;SHT31;51982;51.042;13.806;2023-09-19T13:08:32;23.14;68.94
65378;SHT31;51982;51.042;13.806;2023-09-19T13:11:08;23.17;68.79
65378;SHT31;51982;51.042;13.806;2023-09-19T13:14:24;23.14;69.45
65378;SHT31;51982;51.042;13.806;2023-09-19T13:17:06;23.17;68.70
65378;SHT31;51982;51.042;13.806;2023-09-19T13:25:01;23.21;68.23
65378;SHT31;51982;51.042;13.806;2023-09-19T13:27:29;23.19;68.50
65378;SHT31;51982;51.042;13.806;2023-09-19T13:29:54;23.21;69.38
65378;SHT31;51982;51.042;13.806;2023-09-19T13:32:19;23.24;68.47
65378;SHT31;51982;51.042;13.806;2023-09-19T13:34:44;23.22;68.05
65378;SHT31;51982;51.042;13.806;2023-09-19T13:37:10;23.25;68.67
65378;SHT31;51982;51.042;13.806;2023-09-19T13:39:35;23.25;67.80
65378;SHT31;51982;51.042;13.806;2023-09-19T13:42:01;23.22;66.66
65378;SHT31;51982;51.042;13.806;2023-09-19T13:44:28;23.22;67.01
65378;SHT31;51982;51.042;13.806;2023-09-19T13:46:54;23.24;66.84
65378;SHT31;51982;51.042;13.806;2023-09-19T13:49:20;23.27;66.80
65378;SHT31;51982;51.042;13.806;2023-09-19T13:51:46;23.28;66.51
65378;SHT31;51982;51.042;13.806;2023-09-19T13:54:11;23.28;66.14
65378;SHT31;51982;51.042;13.806;2023-09-19T13:56:37;23.31;66.53
65378;SHT31;51982;51.042;13.806;2023-09-19T13:59:03;23.32;66.27
65378;SHT31;51982;51.042;13.806;2023-09-19T14:01:31;23.34;65.98
65378;SHT31;51982;51.042;13.806;2023-09-19T14:03:56;23.32;65.53
65378;SHT31;51982;51.042;13.806;2023-09-19T14:06:22;23.31;64.80
65378;SHT31;51982;51.042;13.806;2023-09-19T14:08:47;23.32;65.70
65378;SHT31;51982;51.042;13.806;2023-09-19T14:11:15;23.34;64.86
65378;SHT31;51982;51.042;13.806;2023-09-19T14:13:41;23.35;65.26
65378;SHT31;51982;51.042;13.806;2023-09-19T14:16:14;23.38;64.72
65378;SHT31;51982;51.042;13.806;2023-09-19T14:18:39;23.37;64.63
65378;SHT31;51982;51.042;13.806;2023-09-19T14:21:05;23.38;64.68
65378;SHT31;51982;51.042;13.806;2023-09-19T14:23:40;23.34;63.60
65378;SHT31;51982;51.042;13.806;2023-09-19T14:26:06;23.34;63.93
65378;SHT31;51982;51.042;13.806;2023-09-19T14:28:32;23.34;63.99
65378;SHT31;51982;51.042;13.806;2023-09-19T14:31:04;23.37;63.94
65378;SHT31;51982;51.042;13.806;2023-09-19T14:33:30;23.35;64.32
65378;SHT31;51982;51.042;13.806;2023-09-19T14:35:56;23.34;64.14
65378;SHT31;51982;51.042;13.806;2023-09-19T14:38:24;23.32;63.86
65378;SHT31;51982;51.042;13.806;2023-09-19T14:41:05;23.27;63.42
65378;SHT31;51982;51.042;13.806;2023-09-19T14:43:30;23.32;63.63
65378;SHT31;51982;51.042;13.806;2023-09-19T14:46:02;23.28;63.24
65378;SHT31;51982;51.042;13.806;2023-09-19T14:48:27;23.25;63.39
65378;SHT31;51982;51.042;13.806;2023-09-19T14:50:52;23.24;62.80
65378;SHT31;51982;51.042;13.806;2023-09-19T14:53:18;23.28;62.51
65378;SHT31;51982;51.042;13.806;2023-09-19T14:55:44;23.31;62.68
65378;SHT31;51982;51.042;13.806;2023-09-19T14:58:10;23.31;62.45
65378;SHT31;51982;51.042;13.806;2023-09-19T15:00:36;23.32;62.36
65378;SHT31;51982;51.042;13.806;2023-09-19T15:03:01;23.35;62.22
65378;SHT31;51982;51.042;13.806;2023-09-19T15:05:27;23.31;62.36
65378;SHT31;51982;51.042;13.806;2023-09-19T15:07:54;23.32;61.41
65378;SHT31;51982;51.042;13.806;2023-09-19T15:10:21;23.32;61.33
65378;SHT31;51982;51.042;13.806;2023-09-19T15:12:47;23.32;61.23
65378;SHT31;51982;51.042;13.806;2023-09-19T15:15:12;23.31;61.21
65378;SHT31;51982;51.042;13.806;2023-09-19T15:17:38;23.31;60.94
65378;SHT31;51982;51.042;13.806;2023-09-19T15:20:03;23.29;61.33
65378;SHT31;51982;51.042;13.806;2023-09-19T15:22:35;23.34;61.24
65378;SHT31;51982;51.042;13.806;2023-09-19T15:25:01;23.37;61.50
65378;SHT31;51982;51.042;13.806;2023-09-19T15:27:27;23.34;60.99
65378;SHT31;51982;51.042;13.806;2023-09-19T15:29:56;23.35;61.74
65378;SHT31;51982;51.042;13.806;2023-09-19T15:32:23;23.32;61.00
65378;SHT31;51982;51.042;13.806;2023-09-19T15:34:48;23.31;61.33
65378;SHT31;51982;51.042;13.806;2023-09-19T15:37:14;23.28;60.48
65378;SHT31;51982;51.042;13.806;2023-09-19T15:39:39;23.29;61.04
65378;SHT31;51982;51.042;13.806;2023-09-19T15:42:04;23.25;60.86
65378;SHT31;51982;51.042;13.806;2023-09-19T15:44:30;23.22;61.02
65378;SHT31;51982;51.042;13.806;2023-09-19T15:46:56;23.21;60.88
65378;SHT31;51982;51.042;13.806;2023-09-19T15:49:22;23.19;61.04
65378;SHT31;51982;51.042;13.806;2023-09-19T15:51:50;23.14;60.57
65378;SHT31;51982;51.042;13.806;2023-09-19T15:54:16;23.14;61.18
65378;SHT31;51982;51.042;13.806;2023-09-19T15:56:44;23.14;61.35